Aérodrome :
LOGIN :

S'inscrire | Disclaimer

   EN    FR    IT 

 










Légende :    VFR   VFR Marginal   IFR   IFR Intensif   IFR Très Intensif
Visi : 
Plafond : 
>= 8 km
>= 3000ft
5 à 8 km
1000 à 3000 ft
1500m à 5 km
500 à 1000 ft
800 à 1500m
200 à 500 ft
< 800m
< 200 ft
Symboles :   Orages  Brouillard  Fortes neiges  Fortes précipitations  Vent > 20 kt
SIGMETs :   Divers  Orages  Givrage  Turbulence  Onde Orograph.  Cendres Volcan.






- Altitude de l'aérodrome : 297 ft
- Code IATA : UIP


LFRQ - Quimper Pluguffan

DERNIER METAR :
  • 211100Z AUTO 31013KT 9999 BKN035 19/12 Q1016 NOSIG

METARs EXPIRÉS :
  • 211030Z AUTO 31010KT 270V340 9999 BKN032 20/12 Q1016 NOSIG
  • 211000Z AUTO 32010KT 9999 BKN026 BKN038 18/13 Q1015 NOSIG
  • 210930Z AUTO 31012KT 9999 FEW023 BKN034 18/13 Q1015 NOSIG
  • 210900Z AUTO 32013KT 290V350 9999 FEW020 BKN033 OVC039 18/13 Q1015 NOSIG
  • 210830Z AUTO 31013KT 9999 FEW017 SCT022 BKN036 17/14 Q1015 NOSIG
  • 210800Z AUTO 32012KT 280V340 9999 SCT016 BKN024 BKN029 17/14 Q1015 NOSIG
  • 210730Z AUTO 32013KT 9999 BKN015 BKN020 BKN025 17/15 Q1014 NOSIG
  • 210700Z AUTO 32009KT 9999 FEW022 OVC034 16/14 Q1014 TEMPO BKN011
  • 210630Z AUTO 33010KT 9999 BKN014 BKN023 OVC033 16/15 Q1014 BECMG BKN030

TAF TAF LFRQ
Valide du 21 à 06h jusqu'au 22 à 06h UTC


210500Z 2106/2206 34010KT 9999 BKN030
PROB40
TEMPO 2106/2108 BKN011
BECMG 2114/2116 28010KT
BECMG 2119/2121 22005KT
BECMG 2123/2201 BKN012
TEMPO 2201/2206 3000 -DZ OVC006



MET'MAP, la Météo Aéronautique d'un coup d'oeil ! - Copyright ORBIFLY Décembre 2007 - Disclaimer

ORBIFLY MET'MAP TEAM :

Programmation & Développement : Alexandra Zaïnal
Sur une idée originale de : Baudouin d'Aumeries
Soutien technique & logistique : Manuel Goepfert
Assistance : Marc-Olivier Méhu




SOURCES & CREDITS :

   NOAA